sensor_id;sensor_type;location;lat;lon;timestamp;pressure;altitude;pressure_sealevel;temperature;humidity
12722;BME280;6425;50.316;8.114;2022-07-11T00:00:23;99725.72;;;19.27;57.69
12722;BME280;6425;50.316;8.114;2022-07-11T00:05:23;99740.13;;;18.96;57.91
12722;BME280;6425;50.316;8.114;2022-07-11T00:10:25;99734.91;;;18.57;60.63
12722;BME280;6425;50.316;8.114;2022-07-11T00:15:26;99731.69;;;17.59;63.03
12722;BME280;6425;50.316;8.114;2022-07-11T00:20:26;99726.22;;;17.78;62.08
12722;BME280;6425;50.316;8.114;2022-07-11T00:25:28;99717.25;;;18.10;61.19
12722;BME280;6425;50.316;8.114;2022-07-11T00:30:29;99719.31;;;18.61;59.86
12722;BME280;6425;50.316;8.114;2022-07-11T00:35:29;99716.16;;;18.49;59.63
12722;BME280;6425;50.316;8.114;2022-07-11T00:40:31;99718.38;;;18.09;60.74
12722;BME280;6425;50.316;8.114;2022-07-11T00:45:32;99708.47;;;18.03;62.00
12722;BME280;6425;50.316;8.114;2022-07-11T00:50:32;99710.72;;;18.95;59.16
12722;BME280;6425;50.316;8.114;2022-07-11T00:55:34;99707.16;;;18.57;61.25
12722;BME280;6425;50.316;8.114;2022-07-11T01:00:35;99706.00;;;17.53;63.88
12722;BME280;6425;50.316;8.114;2022-07-11T01:05:35;99691.75;;;17.12;65.88
12722;BME280;6425;50.316;8.114;2022-07-11T01:10:37;99686.75;;;17.91;63.01
12722;BME280;6425;50.316;8.114;2022-07-11T01:15:38;99683.88;;;18.91;60.79
12722;BME280;6425;50.316;8.114;2022-07-11T01:20:38;99683.91;;;18.53;60.46
12722;BME280;6425;50.316;8.114;2022-07-11T01:25:40;99676.84;;;19.12;59.62
12722;BME280;6425;50.316;8.114;2022-07-11T01:30:41;99673.72;;;19.60;58.15
12722;BME280;6425;50.316;8.114;2022-07-11T01:35:41;99671.66;;;19.66;57.09
12722;BME280;6425;50.316;8.114;2022-07-11T01:40:43;99659.06;;;19.54;57.17
12722;BME280;6425;50.316;8.114;2022-07-11T01:45:43;99661.31;;;19.39;57.34
12722;BME280;6425;50.316;8.114;2022-07-11T01:50:44;99653.69;;;19.30;57.46
12722;BME280;6425;50.316;8.114;2022-07-11T01:55:46;99661.72;;;19.18;59.00
12722;BME280;6425;50.316;8.114;2022-07-11T02:00:46;99657.66;;;18.97;59.32
12722;BME280;6425;50.316;8.114;2022-07-11T02:05:47;99657.19;;;17.10;64.28
12722;BME280;6425;50.316;8.114;2022-07-11T02:10:50;99656.41;;;17.04;65.75
12722;BME280;6425;50.316;8.114;2022-07-11T02:15:51;99644.47;;;16.79;66.69
12722;BME280;6425;50.316;8.114;2022-07-11T02:20:52;99648.22;;;16.94;66.95
12722;BME280;6425;50.316;8.114;2022-07-11T02:25:54;99651.41;;;17.54;65.27
12722;BME280;6425;50.316;8.114;2022-07-11T02:30:54;99644.78;;;17.98;63.37
12722;BME280;6425;50.316;8.114;2022-07-11T02:35:54;99644.47;;;17.33;64.53
12722;BME280;6425;50.316;8.114;2022-07-11T02:40:56;99633.72;;;18.68;61.14
12722;BME280;6425;50.316;8.114;2022-07-11T02:45:57;99634.69;;;18.77;59.88
12722;BME280;6425;50.316;8.114;2022-07-11T02:50:57;99647.75;;;17.59;63.38
12722;BME280;6425;50.316;8.114;2022-07-11T02:55:59;99643.56;;;18.42;61.65
12722;BME280;6425;50.316;8.114;2022-07-11T03:01:00;99648.66;;;17.30;63.86
12722;BME280;6425;50.316;8.114;2022-07-11T03:06:00;99641.69;;;17.99;63.11
12722;BME280;6425;50.316;8.114;2022-07-11T03:11:02;99646.47;;;17.51;63.86
12722;BME280;6425;50.316;8.114;2022-07-11T03:16:03;99651.94;;;16.79;66.56
12722;BME280;6425;50.316;8.114;2022-07-11T03:21:04;99649.53;;;17.25;64.91
12722;BME280;6425;50.316;8.114;2022-07-11T03:26:05;99660.88;;;16.32;67.42
12722;BME280;6425;50.316;8.114;2022-07-11T03:31:06;99657.13;;;16.51;68.39
12722;BME280;6425;50.316;8.114;2022-07-11T03:36:08;99654.34;;;16.51;68.18
12722;BME280;6425;50.316;8.114;2022-07-11T03:41:10;99655.50;;;16.06;70.46
12722;BME280;6425;50.316;8.114;2022-07-11T03:46:10;99654.03;;;16.92;67.54
12722;BME280;6425;50.316;8.114;2022-07-11T03:51:10;99653.78;;;16.89;66.76
12722;BME280;6425;50.316;8.114;2022-07-11T03:56:12;99649.78;;;17.00;66.38
12722;BME280;6425;50.316;8.114;2022-07-11T04:01:13;99654.59;;;17.42;65.34
12722;BME280;6425;50.316;8.114;2022-07-11T04:06:13;99653.09;;;17.02;66.90
12722;BME280;6425;50.316;8.114;2022-07-11T04:11:15;99641.50;;;17.00;66.58
12722;BME280;6425;50.316;8.114;2022-07-11T04:16:16;99644.00;;;16.33;67.96
12722;BME280;6425;50.316;8.114;2022-07-11T04:21:16;99640.31;;;15.44;72.00
12722;BME280;6425;50.316;8.114;2022-07-11T04:26:18;99638.63;;;15.48;72.43
12722;BME280;6425;50.316;8.114;2022-07-11T04:31:18;99649.69;;;15.43;72.83
12722;BME280;6425;50.316;8.114;2022-07-11T04:36:19;99648.72;;;15.88;72.01
12722;BME280;6425;50.316;8.114;2022-07-11T04:41:20;99649.94;;;16.11;71.09
12722;BME280;6425;50.316;8.114;2022-07-11T04:46:21;99653.84;;;15.45;73.38
12722;BME280;6425;50.316;8.114;2022-07-11T04:51:21;99660.88;;;15.82;72.05
12722;BME280;6425;50.316;8.114;2022-07-11T04:56:23;99664.53;;;16.56;70.02
12722;BME280;6425;50.316;8.114;2022-07-11T05:01:24;99669.56;;;16.10;70.76
12722;BME280;6425;50.316;8.114;2022-07-11T05:06:24;99681.50;;;16.00;70.72
12722;BME280;6425;50.316;8.114;2022-07-11T05:11:26;99674.97;;;15.86;71.80
12722;BME280;6425;50.316;8.114;2022-07-11T05:16:27;99683.16;;;16.06;71.01
12722;BME280;6425;50.316;8.114;2022-07-11T05:21:27;99680.13;;;15.22;74.09
12722;BME280;6425;50.316;8.114;2022-07-11T05:26:29;99680.63;;;15.35;74.10
12722;BME280;6425;50.316;8.114;2022-07-11T05:31:29;99692.78;;;15.34;75.07
12722;BME280;6425;50.316;8.114;2022-07-11T05:36:30;99696.91;;;15.41;74.65
12722;BME280;6425;50.316;8.114;2022-07-11T05:41:32;99701.03;;;15.54;73.12
12722;BME280;6425;50.316;8.114;2022-07-11T05:46:32;99710.47;;;15.17;74.65
12722;BME280;6425;50.316;8.114;2022-07-11T05:51:33;99709.66;;;15.22;75.17
12722;BME280;6425;50.316;8.114;2022-07-11T05:56:35;99701.06;;;15.23;74.82
12722;BME280;6425;50.316;8.114;2022-07-11T06:01:35;99698.25;;;15.49;75.04
12722;BME280;6425;50.316;8.114;2022-07-11T06:06:36;99695.38;;;15.90;72.81
12722;BME280;6425;50.316;8.114;2022-07-11T06:11:37;99697.50;;;16.08;73.31
12722;BME280;6425;50.316;8.114;2022-07-11T06:16:38;99697.91;;;15.81;73.33
12722;BME280;6425;50.316;8.114;2022-07-11T06:21:38;99689.72;;;16.15;71.41
12722;BME280;6425;50.316;8.114;2022-07-11T06:26:40;99700.34;;;15.88;72.84
12722;BME280;6425;50.316;8.114;2022-07-11T06:31:41;99695.66;;;15.93;72.62
12722;BME280;6425;50.316;8.114;2022-07-11T06:36:41;99705.06;;;16.37;70.80
12722;BME280;6425;50.316;8.114;2022-07-11T06:41:43;99701.78;;;15.80;72.45
12722;BME280;6425;50.316;8.114;2022-07-11T06:46:43;99712.31;;;16.27;70.64
12722;BME280;6425;50.316;8.114;2022-07-11T06:51:44;99711.97;;;15.79;72.87
12722;BME280;6425;50.316;8.114;2022-07-11T06:56:46;99723.09;;;15.59;73.46
12722;BME280;6425;50.316;8.114;2022-07-11T07:01:46;99714.25;;;15.57;73.65
12722;BME280;6425;50.316;8.114;2022-07-11T07:06:47;99702.28;;;15.87;72.57
12722;BME280;6425;50.316;8.114;2022-07-11T07:11:49;99701.19;;;15.83;72.59
12722;BME280;6425;50.316;8.114;2022-07-11T07:16:49;99711.00;;;16.10;72.78
12722;BME280;6425;50.316;8.114;2022-07-11T07:21:50;99716.13;;;15.82;72.69
12722;BME280;6425;50.316;8.114;2022-07-11T07:26:52;99724.13;;;15.84;73.67
12722;BME280;6425;50.316;8.114;2022-07-11T07:31:52;99717.50;;;15.90;72.40
12722;BME280;6425;50.316;8.114;2022-07-11T07:36:53;99725.22;;;16.42;72.22
12722;BME280;6425;50.316;8.114;2022-07-11T07:41:55;99732.69;;;15.87;73.11
12722;BME280;6425;50.316;8.114;2022-07-11T07:46:55;99732.19;;;15.65;73.07
12722;BME280;6425;50.316;8.114;2022-07-11T07:51:55;99724.31;;;16.08;72.96
12722;BME280;6425;50.316;8.114;2022-07-11T07:56:57;99727.03;;;16.57;71.89
12722;BME280;6425;50.316;8.114;2022-07-11T08:01:58;99733.28;;;16.78;70.60
12722;BME280;6425;50.316;8.114;2022-07-11T08:06:58;99731.09;;;17.09;69.45
12722;BME280;6425;50.316;8.114;2022-07-11T08:12:00;99739.00;;;15.98;71.99
12722;BME280;6425;50.316;8.114;2022-07-11T08:17:01;99737.22;;;16.67;70.61
12722;BME280;6425;50.316;8.114;2022-07-11T08:22:01;99748.31;;;17.35;67.69
12722;BME280;6425;50.316;8.114;2022-07-11T08:27:04;99744.09;;;17.38;66.66
12722;BME280;6425;50.316;8.114;2022-07-11T08:32:05;99751.41;;;16.55;69.51
12722;BME280;6425;50.316;8.114;2022-07-11T08:37:05;99745.09;;;17.23;68.98
12722;BME280;6425;50.316;8.114;2022-07-11T08:42:08;99742.03;;;16.51;70.17
12722;BME280;6425;50.316;8.114;2022-07-11T08:47:09;99749.56;;;16.85;68.17
12722;BME280;6425;50.316;8.114;2022-07-11T08:52:11;99748.34;;;18.07;65.22
12722;BME280;6425;50.316;8.114;2022-07-11T08:57:15;99750.03;;;17.55;66.94
12722;BME280;6425;50.316;8.114;2022-07-11T09:02:16;99743.59;;;17.60;66.32
12722;BME280;6425;50.316;8.114;2022-07-11T09:07:16;99750.44;;;18.15;62.75
12722;BME280;6425;50.316;8.114;2022-07-11T09:12:18;99740.28;;;17.34;66.79
12722;BME280;6425;50.316;8.114;2022-07-11T09:17:24;99731.59;;;17.69;64.47
12722;BME280;6425;50.316;8.114;2022-07-11T09:22:25;99726.22;;;17.54;65.46
12722;BME280;6425;50.316;8.114;2022-07-11T09:27:39;99725.56;;;17.62;62.65
12722;BME280;6425;50.316;8.114;2022-07-11T09:32:42;99727.03;;;18.64;59.84
12722;BME280;6425;50.316;8.114;2022-07-11T09:37:42;99723.03;;;18.33;61.87
12722;BME280;6425;50.316;8.114;2022-07-11T09:42:49;99706.38;;;19.36;58.04
12722;BME280;6425;50.316;8.114;2022-07-11T09:47:51;99718.66;;;19.02;59.13
12722;BME280;6425;50.316;8.114;2022-07-11T09:53:03;99716.13;;;18.11;59.21
12722;BME280;6425;50.316;8.114;2022-07-11T09:58:06;99715.69;;;19.72;55.45
12722;BME280;6425;50.316;8.114;2022-07-11T10:03:08;99728.38;;;19.65;55.89
12722;BME280;6425;50.316;8.114;2022-07-11T10:08:09;99716.47;;;20.28;53.71
12722;BME280;6425;50.316;8.114;2022-07-11T10:13:11;99727.91;;;18.60;57.72
12722;BME280;6425;50.316;8.114;2022-07-11T10:18:18;99722.22;;;20.45;51.73
12722;BME280;6425;50.316;8.114;2022-07-11T10:23:30;99718.06;;;19.51;55.61
12722;BME280;6425;50.316;8.114;2022-07-11T10:28:39;99726.75;;;18.66;59.87
12722;BME280;6425;50.316;8.114;2022-07-11T10:33:59;99724.00;;;18.42;58.96
12722;BME280;6425;50.316;8.114;2022-07-11T10:39:15;99715.28;;;19.93;57.07
12722;BME280;6425;50.316;8.114;2022-07-11T10:44:17;99714.91;;;19.86;55.13
12722;BME280;6425;50.316;8.114;2022-07-11T10:49:22;99710.69;;;20.97;49.58
12722;BME280;6425;50.316;8.114;2022-07-11T10:54:42;99715.75;;;20.72;49.89
12722;BME280;6425;50.316;8.114;2022-07-11T10:59:58;99710.06;;;21.00;50.09
12722;BME280;6425;50.316;8.114;2022-07-11T11:05:00;99719.38;;;20.73;51.49
12722;BME280;6425;50.316;8.114;2022-07-11T11:10:04;99713.16;;;20.98;50.48
12722;BME280;6425;50.316;8.114;2022-07-11T11:15:35;99713.66;;;19.78;53.97
12722;BME280;6425;50.316;8.114;2022-07-11T11:20:39;99714.50;;;19.32;55.63
12722;BME280;6425;50.316;8.114;2022-07-11T11:25:39;99712.09;;;20.86;53.15
12722;BME280;6425;50.316;8.114;2022-07-11T11:30:52;99716.41;;;19.92;55.99
12722;BME280;6425;50.316;8.114;2022-07-11T11:35:59;99709.84;;;19.60;56.22
12722;BME280;6425;50.316;8.114;2022-07-11T11:41:00;99711.47;;;20.16;55.73
12722;BME280;6425;50.316;8.114;2022-07-11T11:46:02;99719.94;;;19.56;56.14
12722;BME280;6425;50.316;8.114;2022-07-11T11:51:03;99719.47;;;20.32;54.22
12722;BME280;6425;50.316;8.114;2022-07-11T11:56:11;99724.06;;;19.26;56.96
12722;BME280;6425;50.316;8.114;2022-07-11T12:01:15;99718.72;;;19.29;57.66
12722;BME280;6425;50.316;8.114;2022-07-11T12:06:21;99718.94;;;20.29;53.87
12722;BME280;6425;50.316;8.114;2022-07-11T12:11:22;99721.59;;;19.98;55.00
12722;BME280;6425;50.316;8.114;2022-07-11T12:16:25;99711.41;;;20.44;53.85
12722;BME280;6425;50.316;8.114;2022-07-11T12:21:25;99717.19;;;21.37;51.26
12722;BME280;6425;50.316;8.114;2022-07-11T12:26:28;99725.69;;;20.65;53.14
12722;BME280;6425;50.316;8.114;2022-07-11T12:31:41;99726.34;;;20.48;54.42
12722;BME280;6425;50.316;8.114;2022-07-11T12:36:42;99726.72;;;21.14;51.51
12722;BME280;6425;50.316;8.114;2022-07-11T12:41:43;99725.13;;;20.99;51.98
12722;BME280;6425;50.316;8.114;2022-07-11T12:46:45;99721.84;;;20.24;55.34
12722;BME280;6425;50.316;8.114;2022-07-11T12:51:46;99703.84;;;20.08;56.68
12722;BME280;6425;50.316;8.114;2022-07-11T12:56:54;99709.22;;;19.91;56.68
12722;BME280;6425;50.316;8.114;2022-07-11T13:01:58;99711.31;;;20.71;54.46
12722;BME280;6425;50.316;8.114;2022-07-11T13:07:17;99705.81;;;20.08;55.32
12722;BME280;6425;50.316;8.114;2022-07-11T13:12:18;99700.47;;;20.47;56.98
12722;BME280;6425;50.316;8.114;2022-07-11T13:17:20;99699.03;;;19.86;55.84
12722;BME280;6425;50.316;8.114;2022-07-11T13:22:20;99699.81;;;20.87;54.98
12722;BME280;6425;50.316;8.114;2022-07-11T13:27:21;99700.06;;;21.21;52.21
12722;BME280;6425;50.316;8.114;2022-07-11T13:32:22;99708.56;;;20.35;55.72
12722;BME280;6425;50.316;8.114;2022-07-11T13:37:23;99694.84;;;20.84;55.10
12722;BME280;6425;50.316;8.114;2022-07-11T13:42:25;99706.44;;;21.53;52.99
12722;BME280;6425;50.316;8.114;2022-07-11T13:47:28;99682.59;;;21.38;52.59
12722;BME280;6425;50.316;8.114;2022-07-11T13:52:28;99701.31;;;20.93;53.94
12722;BME280;6425;50.316;8.114;2022-07-11T13:57:29;99684.25;;;21.39;52.17
12722;BME280;6425;50.316;8.114;2022-07-11T14:02:31;99697.16;;;21.75;50.47
12722;BME280;6425;50.316;8.114;2022-07-11T14:07:32;99690.63;;;22.54;47.83
12722;BME280;6425;50.316;8.114;2022-07-11T14:12:32;99698.84;;;22.76;47.37
12722;BME280;6425;50.316;8.114;2022-07-11T14:17:34;99700.09;;;21.70;50.60
12722;BME280;6425;50.316;8.114;2022-07-11T14:22:34;99688.63;;;21.32;51.88
12722;BME280;6425;50.316;8.114;2022-07-11T14:27:35;99686.56;;;21.15;50.96
12722;BME280;6425;50.316;8.114;2022-07-11T14:32:37;99689.81;;;21.39;50.59
12722;BME280;6425;50.316;8.114;2022-07-11T14:37:37;99684.34;;;21.25;49.95
12722;BME280;6425;50.316;8.114;2022-07-11T14:42:38;99690.25;;;21.24;51.41
12722;BME280;6425;50.316;8.114;2022-07-11T14:47:40;99690.72;;;20.22;54.04
12722;BME280;6425;50.316;8.114;2022-07-11T14:52:40;99691.69;;;20.54;53.54
12722;BME280;6425;50.316;8.114;2022-07-11T14:57:41;99700.06;;;20.76;52.46
12722;BME280;6425;50.316;8.114;2022-07-11T15:02:43;99696.00;;;21.05;52.32
12722;BME280;6425;50.316;8.114;2022-07-11T15:07:43;99703.00;;;20.21;54.90
12722;BME280;6425;50.316;8.114;2022-07-11T15:12:44;99707.13;;;21.59;51.80
12722;BME280;6425;50.316;8.114;2022-07-11T15:17:45;99695.31;;;21.22;52.11
12722;BME280;6425;50.316;8.114;2022-07-11T15:22:46;99709.78;;;22.12;50.04
12722;BME280;6425;50.316;8.114;2022-07-11T15:27:46;99698.88;;;21.85;49.98
12722;BME280;6425;50.316;8.114;2022-07-11T15:32:48;99700.63;;;22.46;48.45
12722;BME280;6425;50.316;8.114;2022-07-11T15:37:48;99709.56;;;21.51;50.38
12722;BME280;6425;50.316;8.114;2022-07-11T15:42:49;99715.69;;;22.11;45.86
12722;BME280;6425;50.316;8.114;2022-07-11T15:47:51;99704.53;;;21.31;48.58
12722;BME280;6425;50.316;8.114;2022-07-11T15:52:52;99705.88;;;21.73;48.10
12722;BME280;6425;50.316;8.114;2022-07-11T15:57:52;99703.72;;;22.10;48.15
12722;BME280;6425;50.316;8.114;2022-07-11T16:02:54;99703.91;;;22.40;47.84
12722;BME280;6425;50.316;8.114;2022-07-11T16:07:55;99699.84;;;21.49;49.32
12722;BME280;6425;50.316;8.114;2022-07-11T16:12:55;99696.22;;;21.40;49.65
12722;BME280;6425;50.316;8.114;2022-07-11T16:17:57;99687.91;;;20.72;50.31
12722;BME280;6425;50.316;8.114;2022-07-11T16:22:57;99695.94;;;21.50;47.94
12722;BME280;6425;50.316;8.114;2022-07-11T16:27:58;99702.13;;;22.78;45.28
12722;BME280;6425;50.316;8.114;2022-07-11T16:33:00;99681.03;;;22.03;45.15
12722;BME280;6425;50.316;8.114;2022-07-11T16:38:01;99681.97;;;23.46;42.27
12722;BME280;6425;50.316;8.114;2022-07-11T16:43:02;99683.53;;;23.64;41.85
12722;BME280;6425;50.316;8.114;2022-07-11T16:48:04;99691.47;;;23.53;42.77
12722;BME280;6425;50.316;8.114;2022-07-11T16:53:04;99694.25;;;22.54;45.15
12722;BME280;6425;50.316;8.114;2022-07-11T16:58:05;99688.13;;;22.44;44.70
12722;BME280;6425;50.316;8.114;2022-07-11T17:03:07;99694.09;;;22.68;42.67
12722;BME280;6425;50.316;8.114;2022-07-11T17:08:09;99682.72;;;24.23;40.96
12722;BME280;6425;50.316;8.114;2022-07-11T17:13:10;99684.19;;;23.14;43.16
12722;BME280;6425;50.316;8.114;2022-07-11T17:18:12;99681.75;;;22.69;42.98
12722;BME280;6425;50.316;8.114;2022-07-11T17:23:13;99688.31;;;22.56;42.89
12722;BME280;6425;50.316;8.114;2022-07-11T17:46:24;99701.78;;;23.06;42.85
12722;BME280;6425;50.316;8.114;2022-07-11T17:51:25;99691.31;;;22.68;44.20
12722;BME280;6425;50.316;8.114;2022-07-11T17:56:25;99704.44;;;22.76;44.25
12722;BME280;6425;50.316;8.114;2022-07-11T18:01:27;99683.69;;;22.25;45.32
12722;BME280;6425;50.316;8.114;2022-07-11T18:06:27;99686.13;;;21.61;46.81
12722;BME280;6425;50.316;8.114;2022-07-11T18:11:28;99686.16;;;22.44;45.41
12722;BME280;6425;50.316;8.114;2022-07-11T18:16:29;99683.81;;;23.24;42.83
12722;BME280;6425;50.316;8.114;2022-07-11T18:21:30;99690.56;;;24.30;41.36
12722;BME280;6425;50.316;8.114;2022-07-11T18:26:30;99692.06;;;25.81;38.49
12722;BME280;6425;50.316;8.114;2022-07-11T18:31:32;99689.69;;;25.46;39.52
12722;BME280;6425;50.316;8.114;2022-07-11T18:36:33;99695.59;;;24.87;40.02
12722;BME280;6425;50.316;8.114;2022-07-11T18:41:33;99694.06;;;23.97;42.50
12722;BME280;6425;50.316;8.114;2022-07-11T18:46:35;99708.50;;;23.14;44.42
12722;BME280;6425;50.316;8.114;2022-07-11T18:51:35;99703.72;;;22.10;46.47
12722;BME280;6425;50.316;8.114;2022-07-11T18:56:36;99709.78;;;21.64;48.03
12722;BME280;6425;50.316;8.114;2022-07-11T19:01:38;99718.72;;;23.10;45.53
12722;BME280;6425;50.316;8.114;2022-07-11T19:06:39;99724.25;;;23.27;44.68
12722;BME280;6425;50.316;8.114;2022-07-11T19:11:40;99713.56;;;23.38;44.98
12722;BME280;6425;50.316;8.114;2022-07-11T19:16:42;99710.09;;;23.88;43.98
12722;BME280;6425;50.316;8.114;2022-07-11T19:21:43;99711.81;;;24.10;43.59
12722;BME280;6425;50.316;8.114;2022-07-11T19:26:43;99710.75;;;23.85;43.76
12722;BME280;6425;50.316;8.114;2022-07-11T19:31:45;99731.38;;;22.90;46.96
12722;BME280;6425;50.316;8.114;2022-07-11T19:36:45;99723.41;;;22.22;48.78
12722;BME280;6425;50.316;8.114;2022-07-11T19:41:46;99741.97;;;22.18;49.52
12722;BME280;6425;50.316;8.114;2022-07-11T19:46:48;99745.91;;;21.77;50.74
12722;BME280;6425;50.316;8.114;2022-07-11T19:51:48;99726.28;;;21.51;50.98
12722;BME280;6425;50.316;8.114;2022-07-11T19:56:49;99743.97;;;21.02;52.53
12722;BME280;6425;50.316;8.114;2022-07-11T20:01:50;99748.72;;;21.15;52.48
12722;BME280;6425;50.316;8.114;2022-07-11T20:06:51;99753.94;;;21.17;52.51
12722;BME280;6425;50.316;8.114;2022-07-11T20:11:51;99739.44;;;21.28;52.17
12722;BME280;6425;50.316;8.114;2022-07-11T20:16:54;99738.09;;;21.03;52.50
12722;BME280;6425;50.316;8.114;2022-07-11T20:21:55;99742.47;;;20.96;53.51
12722;BME280;6425;50.316;8.114;2022-07-11T20:26:56;99752.84;;;21.04;52.46
12722;BME280;6425;50.316;8.114;2022-07-11T20:31:58;99759.63;;;20.53;53.70
12722;BME280;6425;50.316;8.114;2022-07-11T20:36:58;99759.53;;;20.30;54.04
12722;BME280;6425;50.316;8.114;2022-07-11T20:41:59;99763.66;;;20.47;54.31
12722;BME280;6425;50.316;8.114;2022-07-11T20:47:01;99764.00;;;20.32;53.93
12722;BME280;6425;50.316;8.114;2022-07-11T20:52:01;99765.31;;;20.07;55.07
12722;BME280;6425;50.316;8.114;2022-07-11T20:57:03;99762.22;;;20.22;55.22
12722;BME280;6425;50.316;8.114;2022-07-11T21:02:05;99764.44;;;20.61;54.27
12722;BME280;6425;50.316;8.114;2022-07-11T21:07:05;99769.72;;;20.49;54.57
12722;BME280;6425;50.316;8.114;2022-07-11T21:12:07;99778.09;;;20.21;55.84
12722;BME280;6425;50.316;8.114;2022-07-11T21:17:08;99762.81;;;19.50;57.31
12722;BME280;6425;50.316;8.114;2022-07-11T21:22:09;99771.72;;;19.66;57.56
12722;BME280;6425;50.316;8.114;2022-07-11T21:27:09;99769.59;;;19.44;57.64
12722;BME280;6425;50.316;8.114;2022-07-11T21:32:11;99784.22;;;19.17;59.10
12722;BME280;6425;50.316;8.114;2022-07-11T21:37:12;99785.34;;;19.16;58.77
12722;BME280;6425;50.316;8.114;2022-07-11T21:42:12;99795.81;;;19.05;59.27
12722;BME280;6425;50.316;8.114;2022-07-11T21:47:14;99787.72;;;18.71;59.84
12722;BME280;6425;50.316;8.114;2022-07-11T21:52:14;99799.94;;;18.89;59.65
12722;BME280;6425;50.316;8.114;2022-07-11T21:57:15;99791.31;;;18.71;59.68
12722;BME280;6425;50.316;8.114;2022-07-11T22:02:16;99786.91;;;18.70;58.94
12722;BME280;6425;50.316;8.114;2022-07-11T22:07:17;99798.41;;;18.40;59.51
12722;BME280;6425;50.316;8.114;2022-07-11T22:12:21;99793.16;;;18.14;59.85
12722;BME280;6425;50.316;8.114;2022-07-11T22:17:23;99797.44;;;17.83;60.86
12722;BME280;6425;50.316;8.114;2022-07-11T22:22:23;99796.22;;;17.30;61.74
12722;BME280;6425;50.316;8.114;2022-07-11T22:27:24;99800.94;;;17.01;62.81
12722;BME280;6425;50.316;8.114;2022-07-11T22:32:26;99801.03;;;16.86;63.47
12722;BME280;6425;50.316;8.114;2022-07-11T22:37:26;99803.34;;;16.63;64.35
12722;BME280;6425;50.316;8.114;2022-07-11T22:42:27;99818.78;;;16.79;64.23
12722;BME280;6425;50.316;8.114;2022-07-11T22:47:28;99810.94;;;16.92;62.77
12722;BME280;6425;50.316;8.114;2022-07-11T22:52:29;99816.44;;;16.47;64.28
12722;BME280;6425;50.316;8.114;2022-07-11T22:57:29;99811.22;;;16.41;64.36
12722;BME280;6425;50.316;8.114;2022-07-11T23:02:31;99814.06;;;16.25;64.76
12722;BME280;6425;50.316;8.114;2022-07-11T23:07:31;99819.75;;;15.64;67.21
12722;BME280;6425;50.316;8.114;2022-07-11T23:12:32;99819.78;;;15.54;69.20
12722;BME280;6425;50.316;8.114;2022-07-11T23:17:34;99825.28;;;16.49;66.85
12722;BME280;6425;50.316;8.114;2022-07-11T23:22:34;99820.94;;;16.88;65.06
12722;BME280;6425;50.316;8.114;2022-07-11T23:27:35;99826.00;;;17.15;63.75
12722;BME280;6425;50.316;8.114;2022-07-11T23:32:36;99823.69;;;16.93;64.26
12722;BME280;6425;50.316;8.114;2022-07-11T23:37:37;99822.63;;;16.84;65.29
12722;BME280;6425;50.316;8.114;2022-07-11T23:42:38;99816.75;;;16.41;67.15
12722;BME280;6425;50.316;8.114;2022-07-11T23:47:40;99812.72;;;16.13;67.82
12722;BME280;6425;50.316;8.114;2022-07-11T23:52:40;99814.09;;;16.20;67.06
12722;BME280;6425;50.316;8.114;2022-07-11T23:57:41;99806.94;;;16.04;67.12
